首页
METAR-TAF:

METAR-TAF

机场 :

蘇克雷元帥國際機場

基多, 厄瓜多尔

纬度: 0-06-48S, 经度: 78-21-31W, 海拔: 2400米

当前天气观测

该预报发布于25分钟前的10:00 UTC
风速2节,风向多变
温度 12°C
湿度 94%
气压 1025 hPa
能见度10公里或以上
少量云层高于2600英尺
多云层高于8000英尺

METAR: SEQM 191000Z VRB02KT 9999 FEW026 BKN080 12/11 Q1025 NOSIG RMK A3028

时间: 05:25 (10:25 UTC)

预报

该预报发布于5小时和35分钟前的04:50 UTC
预报有效从19日的 06点(UTC)到 20日的 06点(UTC)
风速3节,风向北转西北
能见度10公里或以上
散云层高于2300英尺
多云层高于8000英尺
短暂存在
从 19日的 08点(UTC)到 19日的 11点(UTC)
能見度: 5000
多云层高于500英尺
碎片雾
成为
从 19日的 11点(UTC)到 19日的 13点(UTC)
风速3节,风向多变
散云层高于3000英尺
多云层高于10000英尺
成为
从 19日的 17点(UTC)到 19日的 19点(UTC)
风速5节,风向北转西北
散云层高于2300英尺, 塔状积云.
多云层高于3300英尺
短暂存在
从 19日的 20点(UTC)到 19日的 23点(UTC)
风速14节,风向
少量云层高于2300英尺, 积雨云.
多云层高于3000英尺
雷暴,

TAF: SEQM 190450Z 1906/2006 33003KT 9999 SCT023 BKN080 TEMPO 1908/1911 5000 BCFG BKN005 BECMG 1911/1913 VRB03KT SCT030 BKN100 BECMG 1917/1919 33005KT SCT023TCU BKN033 TEMPO 1920/1923 36014KT TS FEW023CB BKN030 TX25/1919Z TN10/1911Z

超过4000个机场的气象观测和天气预报(METAR&TAF报告)。

可查询的气象台以黄色和红色小点在地图上表示。

将鼠标移到小点上方,可查看气象台名称。

然后点击查看天气观测和预报。

如需切换地图:点击带黑十字的绿色按钮放大地图;点击带横线的绿色按钮缩小地图;或者点击绿色箭头查看邻近地区的地图。


METAR-TAF: